sensor_id;sensor_type;location;lat;lon;timestamp;P1;durP1;ratioP1;P2;durP2;ratioP2
45314;SDS011;31051;51.540;5.852;2024-01-07T00:03:40;15.1;;;13.7;;
45314;SDS011;31051;51.540;5.852;2024-01-07T00:16:16;15.9;;;14.5;;
45314;SDS011;31051;51.540;5.852;2024-01-07T00:28:52;18.2;;;16.4;;
45314;SDS011;31051;51.540;5.852;2024-01-07T00:41:27;18.2;;;16.5;;
45314;SDS011;31051;51.540;5.852;2024-01-07T00:54:03;17.3;;;15.7;;
45314;SDS011;31051;51.540;5.852;2024-01-07T01:06:39;17.4;;;15.7;;
45314;SDS011;31051;51.540;5.852;2024-01-07T01:19:15;19.9;;;17.7;;
45314;SDS011;31051;51.540;5.852;2024-01-07T01:31:50;22.6;;;20.3;;
45314;SDS011;31051;51.540;5.852;2024-01-07T01:44:26;24.6;;;22.0;;
45314;SDS011;31051;51.540;5.852;2024-01-07T01:57:02;31.5;;;26.1;;
45314;SDS011;31051;51.540;5.852;2024-01-07T02:09:37;29.1;;;23.9;;
45314;SDS011;31051;51.540;5.852;2024-01-07T02:22:13;31.6;;;26.2;;
45314;SDS011;31051;51.540;5.852;2024-01-07T02:34:49;25.8;;;21.9;;
45314;SDS011;31051;51.540;5.852;2024-01-07T02:47:25;22.3;;;19.8;;
45314;SDS011;31051;51.540;5.852;2024-01-07T03:00:00;18.5;;;16.6;;
45314;SDS011;31051;51.540;5.852;2024-01-07T03:12:36;16.1;;;14.4;;
45314;SDS011;31051;51.540;5.852;2024-01-07T03:25:12;17.7;;;15.9;;
45314;SDS011;31051;51.540;5.852;2024-01-07T03:37:47;15.8;;;14.2;;
45314;SDS011;31051;51.540;5.852;2024-01-07T03:50:23;13.4;;;12.2;;
45314;SDS011;31051;51.540;5.852;2024-01-07T04:02:59;14.1;;;12.8;;
45314;SDS011;31051;51.540;5.852;2024-01-07T04:15:34;12.8;;;11.6;;
45314;SDS011;31051;51.540;5.852;2024-01-07T04:28:10;12.5;;;11.3;;
45314;SDS011;31051;51.540;5.852;2024-01-07T04:40:46;12.1;;;11.0;;
45314;SDS011;31051;51.540;5.852;2024-01-07T04:53:22;10.4;;;9.4;;
45314;SDS011;31051;51.540;5.852;2024-01-07T05:05:57;10.1;;;9.2;;
45314;SDS011;31051;51.540;5.852;2024-01-07T05:18:33;9.9;;;9.0;;
45314;SDS011;31051;51.540;5.852;2024-01-07T05:31:09;10.5;;;9.5;;
45314;SDS011;31051;51.540;5.852;2024-01-07T05:43:44;9.8;;;8.9;;
45314;SDS011;31051;51.540;5.852;2024-01-07T05:56:20;9.6;;;8.8;;
45314;SDS011;31051;51.540;5.852;2024-01-07T06:08:56;9.1;;;8.3;;
45314;SDS011;31051;51.540;5.852;2024-01-07T06:21:32;9.3;;;8.5;;
45314;SDS011;31051;51.540;5.852;2024-01-07T06:34:07;9.5;;;8.7;;
45314;SDS011;31051;51.540;5.852;2024-01-07T06:46:43;9.6;;;8.5;;
45314;SDS011;31051;51.540;5.852;2024-01-07T06:59:19;9.3;;;8.3;;
45314;SDS011;31051;51.540;5.852;2024-01-07T07:11:54;10.2;;;9.2;;
45314;SDS011;31051;51.540;5.852;2024-01-07T07:24:30;10.4;;;9.4;;
45314;SDS011;31051;51.540;5.852;2024-01-07T07:37:06;10.5;;;9.5;;
45314;SDS011;31051;51.540;5.852;2024-01-07T07:49:41;10.6;;;9.4;;
45314;SDS011;31051;51.540;5.852;2024-01-07T08:02:17;10.5;;;9.4;;
45314;SDS011;31051;51.540;5.852;2024-01-07T08:14:53;10.3;;;9.3;;
45314;SDS011;31051;51.540;5.852;2024-01-07T08:27:28;9.6;;;8.7;;
45314;SDS011;31051;51.540;5.852;2024-01-07T08:40:04;9.2;;;8.4;;
45314;SDS011;31051;51.540;5.852;2024-01-07T08:52:40;10.9;;;9.2;;
45314;SDS011;31051;51.540;5.852;2024-01-07T09:05:16;8.9;;;8.1;;
45314;SDS011;31051;51.540;5.852;2024-01-07T09:17:51;8.4;;;7.7;;
45314;SDS011;31051;51.540;5.852;2024-01-07T09:30:27;9.0;;;7.8;;
45314;SDS011;31051;51.540;5.852;2024-01-07T09:43:03;7.1;;;6.5;;
45314;SDS011;31051;51.540;5.852;2024-01-07T09:55:38;6.7;;;6.1;;
45314;SDS011;31051;51.540;5.852;2024-01-07T10:08:14;7.2;;;6.5;;
45314;SDS011;31051;51.540;5.852;2024-01-07T10:20:50;7.6;;;6.1;;
45314;SDS011;31051;51.540;5.852;2024-01-07T10:33:25;7.0;;;5.7;;
45314;SDS011;31051;51.540;5.852;2024-01-07T10:46:01;6.3;;;5.3;;
45314;SDS011;31051;51.540;5.852;2024-01-07T10:58:37;7.4;;;5.6;;
45314;SDS011;31051;51.540;5.852;2024-01-07T11:11:12;6.8;;;5.3;;
45314;SDS011;31051;51.540;5.852;2024-01-07T11:23:48;6.9;;;5.8;;
45314;SDS011;31051;51.540;5.852;2024-01-07T11:36:24;7.1;;;6.3;;
45314;SDS011;31051;51.540;5.852;2024-01-07T11:49:00;6.0;;;5.3;;
45314;SDS011;31051;51.540;5.852;2024-01-07T12:01:35;4.8;;;4.3;;
45314;SDS011;31051;51.540;5.852;2024-01-07T12:14:11;5.2;;;3.5;;
45314;SDS011;31051;51.540;5.852;2024-01-07T12:26:47;5.4;;;3.6;;
45314;SDS011;31051;51.540;5.852;2024-01-07T12:39:22;5.0;;;3.5;;
45314;SDS011;31051;51.540;5.852;2024-01-07T12:51:58;4.2;;;3.1;;
45314;SDS011;31051;51.540;5.852;2024-01-07T13:04:34;3.6;;;2.6;;
45314;SDS011;31051;51.540;5.852;2024-01-07T13:17:09;3.2;;;2.3;;
45314;SDS011;31051;51.540;5.852;2024-01-07T13:29:45;4.0;;;2.1;;
45314;SDS011;31051;51.540;5.852;2024-01-07T13:42:21;3.2;;;2.1;;
45314;SDS011;31051;51.540;5.852;2024-01-07T13:54:56;3.8;;;2.1;;
45314;SDS011;31051;51.540;5.852;2024-01-07T14:07:32;2.7;;;2.0;;
45314;SDS011;31051;51.540;5.852;2024-01-07T14:20:08;3.1;;;2.0;;
45314;SDS011;31051;51.540;5.852;2024-01-07T14:32:43;2.7;;;2.0;;
45314;SDS011;31051;51.540;5.852;2024-01-07T14:45:19;2.8;;;2.0;;
45314;SDS011;31051;51.540;5.852;2024-01-07T14:57:55;2.7;;;1.9;;
45314;SDS011;31051;51.540;5.852;2024-01-07T15:10:30;3.1;;;2.0;;
45314;SDS011;31051;51.540;5.852;2024-01-07T15:23:06;2.2;;;1.8;;
45314;SDS011;31051;51.540;5.852;2024-01-07T15:35:42;3.6;;;1.9;;
45314;SDS011;31051;51.540;5.852;2024-01-07T15:48:18;2.2;;;1.8;;
45314;SDS011;31051;51.540;5.852;2024-01-07T16:00:53;2.9;;;2.0;;
45314;SDS011;31051;51.540;5.852;2024-01-07T16:13:29;3.5;;;1.8;;
45314;SDS011;31051;51.540;5.852;2024-01-07T16:26:05;2.4;;;1.6;;
45314;SDS011;31051;51.540;5.852;2024-01-07T16:38:40;3.4;;;1.6;;
45314;SDS011;31051;51.540;5.852;2024-01-07T16:51:16;2.6;;;1.5;;
45314;SDS011;31051;51.540;5.852;2024-01-07T17:03:52;2.4;;;1.6;;
45314;SDS011;31051;51.540;5.852;2024-01-07T17:16:27;3.2;;;1.7;;
45314;SDS011;31051;51.540;5.852;2024-01-07T17:29:03;2.5;;;1.8;;
45314;SDS011;31051;51.540;5.852;2024-01-07T17:41:39;3.2;;;1.9;;
45314;SDS011;31051;51.540;5.852;2024-01-07T17:54:14;3.0;;;1.9;;
45314;SDS011;31051;51.540;5.852;2024-01-07T18:06:50;3.3;;;2.1;;
45314;SDS011;31051;51.540;5.852;2024-01-07T18:19:26;4.0;;;2.1;;
45314;SDS011;31051;51.540;5.852;2024-01-07T18:32:01;2.5;;;2.0;;
45314;SDS011;31051;51.540;5.852;2024-01-07T18:44:37;3.2;;;2.5;;
45314;SDS011;31051;51.540;5.852;2024-01-07T18:57:12;4.1;;;3.2;;
45314;SDS011;31051;51.540;5.852;2024-01-07T19:09:48;4.1;;;3.5;;
45314;SDS011;31051;51.540;5.852;2024-01-07T19:22:24;4.6;;;4.0;;
45314;SDS011;31051;51.540;5.852;2024-01-07T19:34:59;5.3;;;4.4;;
45314;SDS011;31051;51.540;5.852;2024-01-07T19:47:35;5.3;;;4.8;;
45314;SDS011;31051;51.540;5.852;2024-01-07T20:00:11;6.1;;;5.2;;
45314;SDS011;31051;51.540;5.852;2024-01-07T20:12:46;5.8;;;5.0;;
45314;SDS011;31051;51.540;5.852;2024-01-07T20:25:22;5.9;;;5.2;;
45314;SDS011;31051;51.540;5.852;2024-01-07T20:37:58;6.3;;;5.0;;
45314;SDS011;31051;51.540;5.852;2024-01-07T20:50:33;6.1;;;4.8;;
45314;SDS011;31051;51.540;5.852;2024-01-07T21:03:09;6.0;;;5.1;;
45314;SDS011;31051;51.540;5.852;2024-01-07T21:15:45;6.4;;;5.7;;
45314;SDS011;31051;51.540;5.852;2024-01-07T21:28:20;6.8;;;5.9;;
45314;SDS011;31051;51.540;5.852;2024-01-07T21:40:56;6.4;;;5.7;;
45314;SDS011;31051;51.540;5.852;2024-01-07T21:53:32;6.9;;;6.0;;
45314;SDS011;31051;51.540;5.852;2024-01-07T22:06:07;7.1;;;6.3;;
45314;SDS011;31051;51.540;5.852;2024-01-07T22:18:43;6.3;;;5.5;;
45314;SDS011;31051;51.540;5.852;2024-01-07T22:31:19;5.6;;;5.0;;
45314;SDS011;31051;51.540;5.852;2024-01-07T22:43:54;5.6;;;5.1;;
45314;SDS011;31051;51.540;5.852;2024-01-07T22:56:30;6.0;;;5.1;;
45314;SDS011;31051;51.540;5.852;2024-01-07T23:09:06;5.2;;;4.7;;
45314;SDS011;31051;51.540;5.852;2024-01-07T23:21:41;4.8;;;4.4;;
45314;SDS011;31051;51.540;5.852;2024-01-07T23:34:17;5.0;;;4.5;;
45314;SDS011;31051;51.540;5.852;2024-01-07T23:46:53;5.3;;;4.6;;
45314;SDS011;31051;51.540;5.852;2024-01-07T23:59:28;3.9;;;3.6;;
